< < Back
Terminal Aerodrome Forecast


Current Version              Previous Versions:   1  2  3  4  5  6  7  8  9  

Terminal Aerodrome Forecast

120
FTUS42 KFFC 251141
TAFCSG
TAF
KCSG 251141Z 2512/2612 00000KT P6SM FEW120
     FM251500 25003KT P6SM SCT035
     FM251800 26006KT P6SM VCSH SCT050
      TEMPO 2518/2522 4SM -TSRA BR BKN035CB
     FM260100 25003KT P6SM SCT100=



Latest METAR

096
SAUS70 KWBC 260400
MTRCSG
METAR KCSG 260351Z 00000KT 10SM CLR 28/21 A3005 RMK AO2 SLP170 T02830206
$


USA.gov is the U.S. government's official web portal to all federal, state and local government web resources and services.